createdAt,value
2022-10-30T00:00:46.867Z,3.38
2022-10-30T00:03:15.285Z,2.92
2022-10-30T00:05:44.074Z,4.63
2022-10-30T00:08:12.865Z,2.95
2022-10-30T00:10:40.299Z,2.13
2022-10-30T00:13:07.903Z,4.22
2022-10-30T00:15:35.211Z,2.00
2022-10-30T00:18:02.418Z,4.35
2022-10-30T00:20:29.630Z,3.53
2022-10-30T00:22:56.883Z,3.08
2022-10-30T00:25:23.873Z,3.28
2022-10-30T00:27:50.638Z,3.67
2022-10-30T00:30:18.852Z,4.13
2022-10-30T00:32:45.695Z,3.42
2022-10-30T00:35:12.515Z,2.83
2022-10-30T00:37:39.572Z,3.10
2022-10-30T00:40:07.526Z,3.63
2022-10-30T00:42:34.307Z,3.70
2022-10-30T00:45:03.922Z,4.30
2022-10-30T00:47:32.571Z,2.97
2022-10-30T00:50:10.490Z,4.30
2022-10-30T00:53:01.974Z,2.92
2022-10-30T00:55:59.817Z,3.92
2022-10-30T00:58:32.943Z,3.63
2022-10-30T01:01:02.875Z,3.17
2022-10-30T01:03:30.540Z,2.72
2022-10-30T01:06:06.494Z,4.20
2022-10-30T01:08:34.504Z,3.63
2022-10-30T01:11:03.603Z,3.90
2022-10-30T01:13:31.842Z,3.75
2022-10-30T01:16:37.187Z,4.45
2022-10-30T01:19:20.735Z,3.47
2022-10-30T01:22:13.851Z,3.38
2022-10-30T01:24:49.718Z,3.85
2022-10-30T01:27:35.352Z,3.65
2022-10-30T01:30:20.084Z,3.35
2022-10-30T01:33:04.966Z,3.45
2022-10-30T01:36:03.927Z,2.90
2022-10-30T01:38:46.469Z,3.38
2022-10-30T01:41:16.880Z,2.40
2022-10-30T01:43:48.427Z,3.33
2022-10-30T01:46:34.356Z,2.83
2022-10-30T01:52:22.612Z,3.20
2022-10-30T01:55:09.363Z,2.47
2022-10-30T02:00:23.192Z,2.83
2022-10-30T02:02:51.438Z,2.90
2022-10-30T02:05:47.495Z,4.15
2022-10-30T02:08:14.684Z,3.03
2022-10-30T02:10:43.954Z,3.05
2022-10-30T02:13:11.168Z,3.97
2022-10-30T02:15:38.556Z,2.65
2022-10-30T02:18:05.522Z,4.18
2022-10-30T02:20:33.525Z,4.03
2022-10-30T02:23:00.703Z,3.13
2022-10-30T02:25:33.030Z,4.20
2022-10-30T02:27:59.962Z,2.00
2022-10-30T02:30:29.496Z,3.42
2022-10-30T02:32:56.911Z,2.80
2022-10-30T02:35:24.381Z,3.85
2022-10-30T02:37:52.574Z,2.85
2022-10-30T02:40:19.387Z,3.05
2022-10-30T02:42:52.140Z,2.42
2022-10-30T02:45:19.150Z,4.55
2022-10-30T02:47:45.983Z,3.85
2022-10-30T02:50:13.251Z,3.55
2022-10-30T02:52:40.140Z,2.90
2022-10-30T02:55:09.073Z,3.80
2022-10-30T02:57:37.379Z,2.63
2022-10-30T03:00:05.092Z,3.08
2022-10-30T03:02:31.931Z,2.08
2022-10-30T03:04:59.835Z,3.88
2022-10-30T03:07:26.721Z,4.15
2022-10-30T03:09:54.462Z,3.75
2022-10-30T03:12:22.390Z,2.28
2022-10-30T03:14:49.127Z,3.25
2022-10-30T03:17:15.912Z,2.80
2022-10-30T03:19:42.639Z,3.60
2022-10-30T03:22:09.870Z,3.28
2022-10-30T03:24:38.238Z,3.88
2022-10-30T03:27:05.314Z,2.97
2022-10-30T03:29:32.100Z,4.10
2022-10-30T03:31:58.891Z,3.95
2022-10-30T03:34:30.520Z,2.58
2022-10-30T03:36:58.961Z,2.70
2022-10-30T03:39:26.092Z,3.80
2022-10-30T03:41:52.954Z,2.67
2022-10-30T03:44:19.870Z,3.95
2022-10-30T03:46:46.600Z,3.60
2022-10-30T03:49:20.583Z,3.33
2022-10-30T03:51:47.388Z,4.25
2022-10-30T03:54:14.160Z,2.67
2022-10-30T03:56:40.932Z,3.92
2022-10-30T03:59:13.018Z,2.95
2022-10-30T04:01:41.385Z,2.38
2022-10-30T04:04:08.260Z,3.60
2022-10-30T04:06:35.036Z,4.03
2022-10-30T04:09:01.935Z,3.85
2022-10-30T04:11:34.795Z,4.70
2022-10-30T04:14:01.515Z,3.78
2022-10-30T04:16:28.264Z,2.22
2022-10-30T04:18:57.458Z,2.10
2022-10-30T04:21:24.352Z,4.55
2022-10-30T04:23:51.268Z,3.25
2022-10-30T04:26:20.872Z,2.42
2022-10-30T04:28:50.809Z,4.03
2022-10-30T04:31:17.668Z,3.25
2022-10-30T04:33:44.500Z,3.78
2022-10-30T04:36:11.411Z,3.58
2022-10-30T04:38:38.239Z,2.40
2022-10-30T04:41:07.344Z,3.70
2022-10-30T04:43:51.774Z,2.95
2022-10-30T04:46:18.763Z,3.35
2022-10-30T04:48:45.831Z,3.15
2022-10-30T04:51:14.008Z,3.03
2022-10-30T04:53:40.855Z,3.78
2022-10-30T04:56:10.751Z,4.57
2022-10-30T04:58:38.352Z,4.05
2022-10-30T05:01:08.504Z,2.80
2022-10-30T05:03:36.426Z,2.65
2022-10-30T05:06:17.259Z,2.67
2022-10-30T05:08:44.186Z,2.42
2022-10-30T05:11:23.362Z,4.05
2022-10-30T05:13:50.169Z,2.53
2022-10-30T05:16:17.553Z,3.95
2022-10-30T05:18:44.469Z,3.53
2022-10-30T05:21:11.754Z,3.38
2022-10-30T05:23:39.152Z,3.50
2022-10-30T05:26:06.986Z,3.55
2022-10-30T05:28:34.642Z,3.70
2022-10-30T05:31:01.503Z,4.45
2022-10-30T05:33:48.527Z,2.28
2022-10-30T05:36:15.841Z,3.40
2022-10-30T05:38:43.366Z,3.17
2022-10-30T05:41:17.889Z,2.65
2022-10-30T05:43:44.853Z,3.83
2022-10-30T05:46:13.150Z,4.13
2022-10-30T05:48:40.100Z,2.95
2022-10-30T05:51:08.514Z,3.78
2022-10-30T05:53:38.335Z,3.85
2022-10-30T05:56:06.152Z,3.33
2022-10-30T05:58:35.008Z,2.45
2022-10-30T06:01:07.690Z,3.35
2022-10-30T06:03:41.509Z,3.20
2022-10-30T06:06:08.334Z,3.75
2022-10-30T06:08:35.533Z,2.03
2022-10-30T06:11:12.377Z,2.67
2022-10-30T06:13:41.320Z,2.55
2022-10-30T06:16:12.460Z,3.38
2022-10-30T06:18:59.326Z,2.72
2022-10-30T06:21:28.556Z,4.30
2022-10-30T06:24:12.524Z,3.70
2022-10-30T06:26:44.236Z,3.38
2022-10-30T06:29:13.757Z,2.30
2022-10-30T06:31:41.168Z,3.20
2022-10-30T06:34:07.930Z,3.50
2022-10-30T06:36:37.256Z,3.40
2022-10-30T06:39:04.946Z,2.80
2022-10-30T06:41:39.968Z,3.80
2022-10-30T06:44:37.987Z,3.40
2022-10-30T06:47:04.779Z,2.88
2022-10-30T06:49:31.649Z,5.47
2022-10-30T06:51:59.061Z,4.07
2022-10-30T06:54:25.918Z,5.03
2022-10-30T06:56:55.486Z,4.07
2022-10-30T06:59:37.432Z,4.85
2022-10-30T07:02:42.331Z,4.32
2022-10-30T07:05:13.678Z,4.88
2022-10-30T07:07:40.691Z,4.47
2022-10-30T07:10:08.680Z,4.70
2022-10-30T07:12:55.594Z,4.60
2022-10-30T07:18:19.487Z,4.45
2022-10-30T07:20:46.758Z,4.65
2022-10-30T07:23:13.510Z,4.45
2022-10-30T07:25:40.273Z,4.50
2022-10-30T07:28:19.582Z,4.30
2022-10-30T07:31:09.657Z,3.80
2022-10-30T07:36:48.768Z,4.15
2022-10-30T07:39:28.414Z,4.03
2022-10-30T07:42:10.193Z,4.38
2022-10-30T07:44:59.923Z,4.05
2022-10-30T07:47:42.954Z,3.83
2022-10-30T07:50:20.105Z,4.15
2022-10-30T07:52:47.041Z,4.18
2022-10-30T07:55:17.058Z,3.80
2022-10-30T07:57:43.879Z,3.60
2022-10-30T08:00:30.917Z,4.22
2022-10-30T08:03:10.789Z,3.67
2022-10-30T08:05:46.114Z,3.95
2022-10-30T08:08:19.673Z,4.38
2022-10-30T08:10:47.174Z,3.58
2022-10-30T08:13:14.950Z,3.50
2022-10-30T08:15:44.822Z,3.67
2022-10-30T08:18:11.855Z,3.45
2022-10-30T08:20:42.782Z,3.47
2022-10-30T08:23:10.769Z,3.20
2022-10-30T08:25:37.593Z,3.80
2022-10-30T08:28:08.421Z,3.20
2022-10-30T08:30:38.014Z,3.40
2022-10-30T08:33:10.219Z,3.25
2022-10-30T08:35:53.214Z,3.75
2022-10-30T08:38:20.856Z,3.70
2022-10-30T08:40:57.365Z,3.35
2022-10-30T08:43:25.323Z,3.67
2022-10-30T08:45:52.531Z,3.42
2022-10-30T08:48:21.535Z,3.50
2022-10-30T08:50:48.564Z,3.20
2022-10-30T08:53:21.529Z,3.33
2022-10-30T08:55:51.897Z,3.38
2022-10-30T08:58:26.393Z,3.78
2022-10-30T09:00:57.281Z,3.55
2022-10-30T09:03:48.614Z,3.40
2022-10-30T09:06:56.284Z,3.45
2022-10-30T09:09:46.572Z,3.58
2022-10-30T09:12:45.052Z,3.30
2022-10-30T09:15:12.717Z,3.40
2022-10-30T09:18:11.607Z,2.95
2022-10-30T09:20:41.596Z,3.38
2022-10-30T09:23:08.885Z,3.63
2022-10-30T09:25:35.862Z,3.65
2022-10-30T09:28:12.825Z,3.25
2022-10-30T09:31:38.632Z,3.15
2022-10-30T09:34:08.782Z,3.10
2022-10-30T09:36:47.554Z,3.50
2022-10-30T09:39:14.661Z,2.80
2022-10-30T09:42:27.766Z,3.20
2022-10-30T09:45:46.352Z,3.20
2022-10-30T09:48:56.268Z,3.00
2022-10-30T09:52:08.613Z,3.10
2022-10-30T09:55:01.360Z,3.13
2022-10-30T09:58:02.110Z,3.05
2022-10-30T10:00:44.901Z,3.10
2022-10-30T10:03:37.259Z,2.80
2022-10-30T10:06:24.768Z,2.70
2022-10-30T10:09:19.150Z,2.60
2022-10-30T10:12:28.410Z,2.63
2022-10-30T10:14:57.494Z,2.95
2022-10-30T10:17:31.783Z,2.65
2022-10-30T10:20:00.444Z,3.03
2022-10-30T10:22:40.972Z,3.08
2022-10-30T10:25:13.359Z,2.97
2022-10-30T10:28:01.775Z,3.13
2022-10-30T10:30:55.577Z,3.05
2022-10-30T10:34:08.932Z,2.72
2022-10-30T10:36:47.838Z,3.08
2022-10-30T10:39:45.451Z,3.40
2022-10-30T10:42:24.422Z,3.42
2022-10-30T10:45:32.493Z,2.97
2022-10-30T10:48:33.338Z,2.92
2022-10-30T10:51:10.773Z,3.10
2022-10-30T10:54:06.869Z,2.92
2022-10-30T10:56:37.476Z,2.72
2022-10-30T10:59:25.609Z,2.90
2022-10-30T11:02:00.365Z,2.95
2022-10-30T11:04:42.141Z,3.10
2022-10-30T11:07:45.794Z,3.35
2022-10-30T11:10:15.149Z,3.28
2022-10-30T11:12:42.536Z,2.83
2022-10-30T11:15:20.693Z,3.22
2022-10-30T11:21:19.985Z,3.05
2022-10-30T11:23:49.087Z,3.45
2022-10-30T11:26:18.763Z,3.40
2022-10-30T11:29:05.895Z,3.63
2022-10-30T11:31:40.425Z,3.00
2022-10-30T11:34:19.461Z,3.35
2022-10-30T11:36:53.929Z,3.60
2022-10-30T11:39:26.151Z,3.33
2022-10-30T11:42:19.397Z,3.53
2022-10-30T11:44:49.500Z,2.97
2022-10-30T11:47:21.597Z,3.28
2022-10-30T11:50:00.837Z,3.67
2022-10-30T11:52:28.395Z,3.08
2022-10-30T11:55:02.844Z,3.40
2022-10-30T11:57:44.876Z,3.20
2022-10-30T12:00:34.307Z,3.38
2022-10-30T12:03:02.038Z,3.08
2022-10-30T12:05:38.057Z,3.13
2022-10-30T12:08:08.352Z,3.05
2022-10-30T12:10:51.221Z,3.55
2022-10-30T12:13:22.241Z,3.33
2022-10-30T12:15:51.757Z,3.00
2022-10-30T12:18:25.511Z,3.42
2022-10-30T12:20:55.465Z,3.50
2022-10-30T12:23:25.854Z,3.10
2022-10-30T12:26:04.588Z,3.20
2022-10-30T12:28:34.679Z,3.95
2022-10-30T12:31:14.984Z,3.10
2022-10-30T12:33:50.334Z,3.28
2022-10-30T12:36:24.846Z,3.17
2022-10-30T12:39:00.123Z,3.35
2022-10-30T12:41:45.377Z,3.47
2022-10-30T12:44:22.177Z,3.35
2022-10-30T12:46:56.009Z,3.45
2022-10-30T12:49:51.013Z,3.80
2022-10-30T12:52:43.407Z,3.20
2022-10-30T12:55:35.339Z,3.50
2022-10-30T12:58:33.314Z,3.10
2022-10-30T13:01:32.480Z,3.45
2022-10-30T13:04:27.009Z,3.20
2022-10-30T13:07:08.772Z,3.60
2022-10-30T13:10:03.470Z,3.55
2022-10-30T13:12:37.936Z,3.20
2022-10-30T13:15:09.640Z,3.17
2022-10-30T13:17:36.539Z,3.47
2022-10-30T13:20:13.496Z,3.15
2022-10-30T13:22:45.226Z,3.22
2022-10-30T13:25:15.854Z,3.45
2022-10-30T13:28:08.086Z,3.38
2022-10-30T13:30:40.303Z,3.95
2022-10-30T13:33:28.325Z,3.25
2022-10-30T13:36:18.696Z,2.97
2022-10-30T13:39:19.214Z,3.30
2022-10-30T13:41:52.107Z,3.58
2022-10-30T13:44:18.988Z,3.17
2022-10-30T13:47:00.780Z,3.55
2022-10-30T13:49:46.994Z,3.10
2022-10-30T13:52:18.410Z,3.70
2022-10-30T13:55:04.502Z,2.63
2022-10-30T13:57:56.140Z,3.20
2022-10-30T14:00:29.245Z,3.42
2022-10-30T14:03:21.096Z,3.55
2022-10-30T14:06:07.691Z,2.75
2022-10-30T14:08:43.813Z,3.20
2022-10-30T14:11:13.999Z,3.65
2022-10-30T14:13:56.867Z,2.97
2022-10-30T14:16:45.875Z,3.30
2022-10-30T14:19:17.143Z,3.35
2022-10-30T14:21:59.910Z,3.25
2022-10-30T14:24:33.045Z,3.17
2022-10-30T14:27:05.890Z,3.50
2022-10-30T14:29:35.853Z,3.65
2022-10-30T14:32:14.841Z,2.90
2022-10-30T14:34:50.919Z,3.55
2022-10-30T14:37:38.181Z,3.47
2022-10-30T14:43:02.331Z,3.72
2022-10-30T14:45:46.513Z,3.53
2022-10-30T14:48:47.249Z,3.10
2022-10-30T14:51:35.890Z,3.33
2022-10-30T14:54:27.327Z,3.63
2022-10-30T14:56:54.273Z,3.45
2022-10-30T14:59:24.360Z,3.60
2022-10-30T15:02:24.398Z,3.60
2022-10-30T15:05:09.680Z,4.13
2022-10-30T15:07:56.187Z,4.07
2022-10-30T15:10:31.157Z,3.97
2022-10-30T15:12:59.796Z,3.72
2022-10-30T15:15:29.845Z,3.90
2022-10-30T15:18:01.270Z,4.15
2022-10-30T15:20:35.183Z,4.72
2022-10-30T15:23:10.093Z,4.10
2022-10-30T15:25:52.429Z,4.45
2022-10-30T15:28:22.675Z,4.28
2022-10-30T15:31:25.918Z,4.22
2022-10-30T15:33:54.336Z,4.22
2022-10-30T15:36:34.399Z,4.03
2022-10-30T15:39:15.871Z,3.70
2022-10-30T15:41:50.512Z,4.25
2022-10-30T15:44:21.754Z,4.57
2022-10-30T15:46:52.466Z,4.78
2022-10-30T15:49:51.632Z,4.60
2022-10-30T15:52:20.599Z,4.18
2022-10-30T15:54:58.954Z,4.15
2022-10-30T15:58:04.577Z,4.82
2022-10-30T16:00:35.251Z,4.45
2022-10-30T16:03:06.293Z,4.60
2022-10-30T16:05:34.136Z,4.55
2022-10-30T16:08:02.703Z,4.90
2022-10-30T16:10:34.683Z,4.68
2022-10-30T16:13:03.501Z,4.72
2022-10-30T16:15:38.340Z,5.22
2022-10-30T16:18:22.078Z,5.25
2022-10-30T16:20:55.800Z,5.43
2022-10-30T16:23:23.139Z,5.55
2022-10-30T16:25:55.671Z,5.47
2022-10-30T16:28:32.211Z,5.55
2022-10-30T16:31:05.340Z,5.70
2022-10-30T16:33:35.206Z,6.03
2022-10-30T16:36:03.995Z,6.20
2022-10-30T16:38:37.345Z,8.07
2022-10-30T16:41:06.450Z,7.57
2022-10-30T16:43:35.092Z,7.05
2022-10-30T16:46:14.132Z,6.75
2022-10-30T16:49:03.555Z,7.13
2022-10-30T16:51:30.674Z,5.97
2022-10-30T16:53:59.604Z,7.80
2022-10-30T16:56:28.780Z,7.30
2022-10-30T16:59:31.644Z,6.65
2022-10-30T17:02:05.811Z,7.38
2022-10-30T17:04:35.894Z,6.43
2022-10-30T17:07:17.165Z,6.00
2022-10-30T17:09:52.222Z,7.22
2022-10-30T17:12:30.348Z,7.35
2022-10-30T17:15:24.804Z,6.68
2022-10-30T17:18:13.437Z,6.90
2022-10-30T17:20:40.245Z,6.75
2022-10-30T17:23:18.452Z,6.88
2022-10-30T17:25:46.099Z,6.85
2022-10-30T17:28:34.239Z,6.90
2022-10-30T17:31:36.149Z,7.35
2022-10-30T17:34:02.870Z,8.43
2022-10-30T17:36:29.724Z,7.32
2022-10-30T17:38:56.446Z,7.55
2022-10-30T17:41:23.329Z,7.32
2022-10-30T17:43:56.818Z,8.27
2022-10-30T17:46:24.576Z,8.88
2022-10-30T17:48:51.337Z,8.18
2022-10-30T17:51:19.519Z,8.82
2022-10-30T17:53:49.720Z,7.45
2022-10-30T17:56:19.637Z,7.68
2022-10-30T17:58:49.540Z,7.72
2022-10-30T18:01:27.738Z,7.90
2022-10-30T18:03:57.309Z,7.70
2022-10-30T18:06:27.034Z,7.95
2022-10-30T18:08:54.808Z,7.85
2022-10-30T18:11:28.758Z,8.02
2022-10-30T18:13:56.951Z,7.55
2022-10-30T18:16:24.203Z,8.30
2022-10-30T18:18:52.025Z,8.68
2022-10-30T18:21:23.843Z,8.63
2022-10-30T18:23:57.270Z,12.68
2022-10-30T18:26:30.774Z,11.40
2022-10-30T18:28:57.529Z,10.60
2022-10-30T18:31:24.789Z,11.35
2022-10-30T18:33:51.617Z,10.63
2022-10-30T18:36:22.268Z,10.45
2022-10-30T18:38:52.520Z,9.27
2022-10-30T18:41:33.875Z,8.90
2022-10-30T18:44:01.053Z,7.93
2022-10-30T18:46:36.579Z,8.75
2022-10-30T18:49:06.116Z,7.65
2022-10-30T18:51:32.941Z,7.82
2022-10-30T18:54:00.016Z,7.57
2022-10-30T18:56:30.899Z,7.68
2022-10-30T18:59:01.882Z,7.53
2022-10-30T19:01:32.145Z,5.15
2022-10-30T19:04:03.921Z,4.72
2022-10-30T19:06:30.929Z,9.52
2022-10-30T19:08:57.655Z,9.55
2022-10-30T19:11:25.817Z,12.00
2022-10-30T19:13:54.397Z,12.68
2022-10-30T19:16:24.538Z,11.73
2022-10-30T19:18:51.403Z,11.65
2022-10-30T19:21:24.651Z,10.50
2022-10-30T19:23:51.734Z,12.23
2022-10-30T19:26:18.606Z,16.55
2022-10-30T19:28:46.224Z,15.65
2022-10-30T19:31:18.352Z,12.45
2022-10-30T19:33:46.122Z,12.98
2022-10-30T19:36:34.142Z,9.25
2022-10-30T19:39:07.594Z,12.75
2022-10-30T19:41:36.588Z,11.80
2022-10-30T19:44:03.462Z,13.43
2022-10-30T19:46:30.189Z,7.47
2022-10-30T19:48:58.434Z,10.43
2022-10-30T19:51:27.508Z,9.50
2022-10-30T19:53:54.378Z,8.48
2022-10-30T19:56:21.602Z,9.50
2022-10-30T19:58:48.557Z,7.57
2022-10-30T20:01:15.758Z,8.05
2022-10-30T20:03:42.826Z,8.55
2022-10-30T20:06:12.317Z,8.52
2022-10-30T20:08:39.624Z,7.68
2022-10-30T20:11:06.694Z,4.38
2022-10-30T20:13:34.074Z,8.35
2022-10-30T20:16:03.358Z,9.52
2022-10-30T20:18:32.603Z,6.20
2022-10-30T20:21:01.655Z,8.00
2022-10-30T20:23:28.616Z,5.20
2022-10-30T20:26:00.552Z,8.50
2022-10-30T20:28:39.928Z,8.50
2022-10-30T20:31:08.387Z,7.05
2022-10-30T20:33:35.480Z,7.22
2022-10-30T20:36:02.506Z,4.85
2022-10-30T20:38:32.957Z,9.18
2022-10-30T20:41:02.018Z,8.35
2022-10-30T20:43:31.742Z,9.35
2022-10-30T20:45:59.872Z,5.07
2022-10-30T20:48:27.580Z,9.43
2022-10-30T20:50:56.089Z,7.72
2022-10-30T20:53:23.032Z,6.53
2022-10-30T20:55:49.786Z,9.38
2022-10-30T20:58:16.577Z,9.77
2022-10-30T21:00:43.856Z,10.15
2022-10-30T21:03:14.359Z,8.90
2022-10-30T21:05:44.185Z,6.68
2022-10-30T21:08:13.554Z,7.95
2022-10-30T21:10:40.849Z,8.60
2022-10-30T21:13:09.756Z,9.18
2022-10-30T21:15:44.677Z,7.88
2022-10-30T21:18:15.199Z,5.43
2022-10-30T21:20:41.957Z,8.50
2022-10-30T21:23:08.990Z,10.90
2022-10-30T21:25:35.974Z,8.77
2022-10-30T21:28:02.904Z,5.47
2022-10-30T21:30:29.824Z,8.88
2022-10-30T21:32:57.895Z,10.10
2022-10-30T21:35:25.117Z,10.27
2022-10-30T21:37:51.820Z,9.60
2022-10-30T21:40:20.557Z,7.03
2022-10-30T21:42:48.156Z,13.05
2022-10-30T21:45:15.060Z,10.27
2022-10-30T21:47:41.756Z,7.47
2022-10-30T21:50:12.178Z,12.43
2022-10-30T21:52:40.435Z,7.00
2022-10-30T21:55:07.667Z,11.13
2022-10-30T21:57:34.608Z,11.20
2022-10-30T22:00:05.506Z,11.48
2022-10-30T22:02:34.124Z,9.25
2022-10-30T22:05:00.935Z,11.50
2022-10-30T22:07:27.859Z,9.93
2022-10-30T22:09:54.611Z,10.23
2022-10-30T22:12:21.512Z,9.45
2022-10-30T22:14:48.234Z,8.00
2022-10-30T22:17:14.956Z,11.30
2022-10-30T22:19:41.749Z,9.60
2022-10-30T22:22:09.150Z,9.52
2022-10-30T22:24:35.938Z,8.07
2022-10-30T22:27:02.834Z,9.45
2022-10-30T22:29:29.842Z,8.20
2022-10-30T22:31:56.607Z,6.88
2022-10-30T22:34:23.384Z,8.85
2022-10-30T22:36:50.291Z,5.53
2022-10-30T22:39:17.051Z,8.27
2022-10-30T22:41:43.896Z,7.45
2022-10-30T22:44:17.278Z,9.57
2022-10-30T22:46:44.052Z,7.72
2022-10-30T22:49:11.597Z,7.35
2022-10-30T22:51:39.435Z,9.93
2022-10-30T22:54:09.544Z,6.45
2022-10-30T22:56:39.080Z,9.50
2022-10-30T22:59:08.492Z,5.70
2022-10-30T23:01:37.744Z,8.40
2022-10-30T23:04:05.808Z,8.23
2022-10-30T23:06:34.155Z,8.00
2022-10-30T23:09:04.408Z,9.15
2022-10-30T23:11:31.276Z,7.88
2022-10-30T23:13:58.060Z,8.57
2022-10-30T23:16:26.571Z,7.80
2022-10-30T23:18:58.968Z,8.45
2022-10-30T23:21:28.551Z,7.57
2022-10-30T23:24:02.090Z,7.60
2022-10-30T23:26:31.579Z,7.82
2022-10-30T23:28:59.341Z,7.53
2022-10-30T23:31:34.835Z,8.20
2022-10-30T23:34:03.899Z,6.57
2022-10-30T23:36:30.933Z,7.40
2022-10-30T23:39:00.478Z,7.45
2022-10-30T23:41:29.378Z,6.97
2022-10-30T23:44:01.498Z,7.20
2022-10-30T23:46:28.906Z,6.43
2022-10-30T23:48:56.074Z,5.57
2022-10-30T23:51:23.022Z,7.05
2022-10-30T23:53:50.090Z,7.38
2022-10-30T23:56:17.866Z,6.43
2022-10-30T23:58:46.124Z,7.43
